Time;durP1;ratioP1;P1;durP2;ratioP2;P2;SDS_P1;SDS_P2;PMS_P1;PMS_P2;Temp;Humidity;BMP_temperature;BMP_pressure;BME280_temperature;BME280_humidity;BME280_pressure;Samples;Min_cycle;Max_cycle;Signal;HPM_P1;HPM_P2
2023/08/15 00:00:20;;;;;;;3.72;3.28;;;28.00;43.20;;;;;;5033180;28;20032;-66
2023/08/15 00:02:46;;;;;;;4.38;3.50;;;28.10;43.20;;;;;;5033221;28;20029;-67
2023/08/15 00:05:12;;;;;;;5.93;3.30;;;28.10;43.20;;;;;;5033875;28;20032;-67
2023/08/15 00:07:57;;;;;;;4.68;3.08;;;28.00;43.10;;;;;;5052223;28;20052;-67
2023/08/15 00:10:24;;;;;;;4.45;3.50;;;28.00;43.10;;;;;;5052738;28;20045;-68
2023/08/15 00:12:53;;;;;;;5.60;3.60;;;28.00;43.00;;;;;;5052592;28;20041;-67
2023/08/15 00:15:22;;;;;;;3.63;2.83;;;27.90;42.50;;;;;;5052545;28;20102;-66
2023/08/15 00:17:49;;;;;;;5.82;3.42;;;27.90;42.80;;;;;;5052802;28;20029;-67
2023/08/15 00:20:15;;;;;;;5.47;3.60;;;28.00;43.40;;;;;;5033119;28;20033;-68
2023/08/15 00:22:41;;;;;;;5.55;3.42;;;28.00;43.40;;;;;;5013764;28;20077;-67
2023/08/15 00:25:08;;;;;;;4.28;3.20;;;28.00;43.30;;;;;;5032942;28;20061;-67
2023/08/15 00:27:34;;;;;;;5.15;3.60;;;28.00;43.30;;;;;;5032329;28;20171;-67
2023/08/15 00:30:05;;;;;;;3.47;3.22;;;28.00;43.30;;;;;;5015009;28;20373;-67
2023/08/15 00:32:35;;;;;;;3.45;3.13;;;28.00;43.20;;;;;;4981263;28;20412;-66
2023/08/15 00:35:05;;;;;;;5.10;3.15;;;28.00;43.30;;;;;;5031374;28;20060;-67
2023/08/15 00:37:32;;;;;;;3.58;2.83;;;28.10;43.30;;;;;;5031467;28;20053;-67
2023/08/15 00:39:58;;;;;;;6.07;3.60;;;28.00;43.30;;;;;;5032836;28;20025;-67
2023/08/15 00:42:25;;;;;;;5.18;3.45;;;28.00;43.40;;;;;;5032601;28;20041;-67
2023/08/15 00:44:51;;;;;;;3.60;3.30;;;28.00;43.40;;;;;;5014851;28;20866;-67
2023/08/15 00:47:19;;;;;;;3.80;3.25;;;28.10;43.50;;;;;;5032566;28;20028;-66
2023/08/15 00:49:46;;;;;;;4.05;3.17;;;28.10;43.60;;;;;;5032043;28;20113;-67
2023/08/15 00:52:14;;;;;;;4.38;3.20;;;28.00;43.70;;;;;;4998334;28;20037;-67
2023/08/15 00:54:45;;;;;;;4.03;3.63;;;28.20;43.80;;;;;;5032539;28;20044;-67
2023/08/15 00:57:11;;;;;;;3.38;3.05;;;28.20;43.90;;;;;;5032289;28;20493;-67
2023/08/15 00:59:39;;;;;;;3.50;3.20;;;28.10;43.90;;;;;;5014585;28;20057;-67
2023/08/15 01:02:05;;;;;;;4.63;2.85;;;28.20;44.00;;;;;;5032265;28;20370;-65
2023/08/15 01:04:31;;;;;;;3.88;3.47;;;28.20;44.10;;;;;;5030338;28;20037;-66
2023/08/15 01:06:58;;;;;;;4.75;3.28;;;28.10;44.10;;;;;;5031653;28;20548;-68
2023/08/15 01:09:24;;;;;;;4.47;3.15;;;28.20;44.20;;;;;;5032059;28;20052;-67
2023/08/15 01:12:02;;;;;;;5.55;3.17;;;28.30;44.20;;;;;;5014405;28;20030;-66
2023/08/15 01:14:55;;;;;;;4.47;2.95;;;28.10;44.30;;;;;;5014314;28;20033;-67
2023/08/15 01:17:38;;;;;;;3.17;2.88;;;28.30;44.30;;;;;;5031825;28;20429;-67
2023/08/15 01:20:08;;;;;;;7.50;3.30;;;28.10;44.40;;;;;;5031795;28;20198;-67
2023/08/15 01:22:40;;;;;;;5.10;3.35;;;28.30;44.40;;;;;;5032009;28;20044;-66
2023/08/15 01:25:07;;;;;;;5.20;2.85;;;28.30;44.50;;;;;;5014316;28;20115;-67
2023/08/15 01:27:34;;;;;;;3.85;3.30;;;28.10;44.50;;;;;;5031831;28;20393;-67
2023/08/15 01:30:00;;;;;;;4.32;3.50;;;28.20;44.50;;;;;;5031476;28;20064;-67
2023/08/15 01:32:59;;;;;;;3.08;2.75;;;28.30;44.60;;;;;;5031681;28;20045;-67
2023/08/15 01:35:34;;;;;;;4.55;3.25;;;28.30;44.60;;;;;;5013898;28;20056;-67
2023/08/15 01:38:21;;;;;;;4.65;3.25;;;28.30;44.60;;;;;;5031360;28;20112;-66
2023/08/15 01:40:53;;;;;;;4.22;3.47;;;28.20;44.70;;;;;;5031588;28;20041;-67
2023/08/15 01:43:20;;;;;;;4.50;3.55;;;28.20;44.70;;;;;;5013598;28;20041;-67
2023/08/15 01:45:47;;;;;;;5.03;3.05;;;28.30;44.70;;;;;;5013858;28;20397;-68
2023/08/15 01:48:14;;;;;;;2.72;2.53;;;28.20;44.80;;;;;;5031432;28;20029;-68
2023/08/15 01:51:03;;;;;;;4.05;2.78;;;28.30;44.80;;;;;;5031500;28;20072;-67
2023/08/15 01:53:29;;;;;;;3.13;2.83;;;28.30;44.90;;;;;;5031248;28;20038;-67
2023/08/15 01:55:56;;;;;;;3.53;3.17;;;28.40;44.90;;;;;;5031471;28;20045;-66
2023/08/15 01:58:22;;;;;;;3.08;2.80;;;28.30;44.90;;;;;;5031098;28;20061;-65
2023/08/15 02:00:48;;;;;;;5.95;3.88;;;28.30;44.90;;;;;;4980204;28;20128;-67
2023/08/15 02:03:15;;;;;;;6.20;3.35;;;28.30;44.90;;;;;;5031097;28;20091;-68
2023/08/15 02:05:41;;;;;;;4.88;3.13;;;28.40;44.90;;;;;;5013539;28;20103;-67
2023/08/15 02:08:07;;;;;;;6.03;3.05;;;28.30;44.90;;;;;;5051183;28;20119;-67
2023/08/15 02:10:33;;;;;;;4.03;2.80;;;28.30;44.90;;;;;;5033325;28;20067;-67
2023/08/15 02:12:59;;;;;;;3.70;3.15;;;28.30;44.90;;;;;;5050891;28;20051;-70
2023/08/15 02:15:26;;;;;;;4.30;2.45;;;28.10;45.00;;;;;;5033015;28;20056;-70
2023/08/15 02:17:52;;;;;;;3.47;3.17;;;28.30;44.90;;;;;;5040894;28;20061;-68
2023/08/15 02:20:18;;;;;;;3.22;2.78;;;28.20;45.00;;;;;;4996755;28;20471;-71
2023/08/15 02:22:44;;;;;;;3.28;2.97;;;28.20;45.00;;;;;;5030734;28;20087;-71
2023/08/15 02:25:10;;;;;;;3.78;3.00;;;28.10;45.10;;;;;;5013318;28;20436;-71
2023/08/15 02:27:37;;;;;;;3.60;2.80;;;28.20;45.20;;;;;;5030851;28;20029;-70
2023/08/15 02:30:04;;;;;;;2.75;2.50;;;28.10;45.30;;;;;;5030961;28;20041;-70
2023/08/15 02:32:31;;;;;;;3.25;2.70;;;28.20;45.40;;;;;;5012902;28;20041;-71
2023/08/15 02:34:57;;;;;;;5.13;3.17;;;28.00;45.50;;;;;;5012750;28;20059;-70
2023/08/15 02:37:23;;;;;;;3.53;2.95;;;28.10;45.60;;;;;;5012794;28;20413;-71
2023/08/15 02:39:49;;;;;;;3.10;2.80;;;28.10;45.60;;;;;;5013094;28;20064;-70
2023/08/15 02:42:16;;;;;;;3.55;3.25;;;28.10;45.70;;;;;;5030918;28;20030;-70
2023/08/15 02:44:43;;;;;;;6.88;3.47;;;28.20;45.80;;;;;;5030791;28;20048;-70
2023/08/15 02:47:09;;;;;;;6.90;3.55;;;28.20;45.80;;;;;;5012963;28;20032;-71
2023/08/15 02:49:35;;;;;;;3.38;2.60;;;28.20;45.90;;;;;;5012783;28;20037;-71
2023/08/15 02:52:01;;;;;;;6.22;3.35;;;28.20;46.00;;;;;;5012082;28;20038;-70
2023/08/15 02:54:27;;;;;;;4.13;2.85;;;28.20;46.00;;;;;;5030264;28;20033;-70
2023/08/15 02:56:53;;;;;;;4.97;3.40;;;28.30;46.10;;;;;;5004230;28;20049;-70
2023/08/15 02:59:22;;;;;;;6.53;3.60;;;28.30;46.10;;;;;;5029155;28;20057;-71
2023/08/15 03:01:48;;;;;;;7.43;3.72;;;28.20;46.20;;;;;;5030472;28;20056;-71
2023/08/15 03:04:14;;;;;;;4.68;3.58;;;28.20;46.30;;;;;;5030367;28;20113;-70
2023/08/15 03:06:42;;;;;;;4.25;3.38;;;28.30;46.30;;;;;;5032313;28;20117;-70
2023/08/15 03:09:08;;;;;;;4.53;2.80;;;28.20;46.40;;;;;;5040252;28;20122;-71
2023/08/15 03:11:34;;;;;;;4.28;2.58;;;28.30;46.40;;;;;;5030493;28;20117;-71
2023/08/15 03:14:00;;;;;;;3.67;3.28;;;28.30;46.50;;;;;;4991556;28;20497;-71
2023/08/15 03:16:27;;;;;;;3.00;2.50;;;28.30;46.60;;;;;;4991680;28;20073;-71
2023/08/15 03:18:54;;;;;;;3.50;2.20;;;28.10;46.60;;;;;;4991663;28;20794;-70
2023/08/15 03:21:20;;;;;;;2.58;2.38;;;28.30;46.60;;;;;;4991837;28;20049;-71
2023/08/15 03:23:46;;;;;;;3.33;2.60;;;28.20;46.70;;;;;;5008056;28;20057;-71
2023/08/15 03:26:13;;;;;;;2.65;2.25;;;28.30;46.70;;;;;;5007756;28;20034;-71
2023/08/15 03:28:39;;;;;;;2.72;2.50;;;28.30;46.70;;;;;;4992608;28;20076;-70
2023/08/15 03:31:08;;;;;;;5.50;2.03;;;28.20;46.70;;;;;;4978816;28;20519;-71
2023/08/15 03:33:39;;;;;;;3.30;2.67;;;28.40;46.80;;;;;;4995027;28;20041;-70
2023/08/15 03:36:06;;;;;;;3.28;2.50;;;28.20;46.80;;;;;;4995445;28;20480;-70
2023/08/15 03:38:33;;;;;;;3.40;2.78;;;28.30;46.90;;;;;;4995398;28;20034;-71
2023/08/15 03:41:21;;;;;;;3.30;2.97;;;28.20;46.90;;;;;;4972346;28;20078;-70
2023/08/15 03:43:48;;;;;;;3.35;2.40;;;28.20;46.90;;;;;;4971470;28;20039;-70
2023/08/15 03:46:14;;;;;;;2.90;2.22;;;28.10;46.90;;;;;;4992061;28;20050;-71
2023/08/15 03:48:41;;;;;;;3.65;3.03;;;28.20;47.00;;;;;;4991822;28;20053;-70
2023/08/15 03:51:07;;;;;;;3.25;2.72;;;28.20;47.00;;;;;;4975445;28;20514;-71
2023/08/15 03:53:33;;;;;;;2.95;2.50;;;28.10;47.00;;;;;;4992013;28;20065;-70
2023/08/15 03:56:00;;;;;;;2.88;2.63;;;28.10;47.10;;;;;;4991699;28;20077;-71
2023/08/15 03:58:27;;;;;;;4.28;3.13;;;28.10;47.20;;;;;;4991448;28;20093;-70
2023/08/15 04:00:53;;;;;;;5.25;2.88;;;28.10;47.20;;;;;;4991007;28;20069;-71
2023/08/15 04:03:19;;;;;;;2.83;2.55;;;28.10;47.20;;;;;;4991551;28;20533;-71
2023/08/15 04:05:47;;;;;;;3.03;2.22;;;28.10;47.30;;;;;;4991429;28;20078;-70
2023/08/15 04:08:14;;;;;;;2.60;2.40;;;28.10;47.30;;;;;;4991383;28;20038;-71
2023/08/15 04:10:43;;;;;;;3.45;2.63;;;28.10;47.30;;;;;;4991566;28;20502;-70
2023/08/15 04:13:10;;;;;;;3.35;2.67;;;28.10;47.30;;;;;;4991409;28;20058;-70
2023/08/15 04:15:46;;;;;;;2.72;2.53;;;28.00;47.40;;;;;;4991455;28;20045;-70
2023/08/15 04:18:13;;;;;;;3.70;2.45;;;28.20;47.40;;;;;;4982268;28;20038;-71
2023/08/15 04:20:42;;;;;;;2.90;2.65;;;28.20;47.40;;;;;;5015611;28;20044;-70
2023/08/15 04:23:08;;;;;;;2.70;2.35;;;28.00;47.40;;;;;;5033049;28;20044;-70
2023/08/15 04:25:39;;;;;;;2.58;2.22;;;28.10;47.40;;;;;;5015228;28;20383;-71
2023/08/15 04:28:05;;;;;;;3.60;2.85;;;28.00;47.40;;;;;;5015144;28;20037;-70
2023/08/15 04:30:33;;;;;;;2.60;2.40;;;28.00;47.60;;;;;;5015301;28;20033;-70
2023/08/15 04:33:00;;;;;;;4.00;2.13;;;28.10;47.60;;;;;;5015326;28;20078;-70
2023/08/15 04:35:27;;;;;;;2.22;2.03;;;28.00;47.60;;;;;;4998730;28;20060;-71
2023/08/15 04:37:54;;;;;;;2.75;2.50;;;28.00;47.70;;;;;;4994092;28;20088;-71
2023/08/15 04:40:31;;;;;;;4.05;2.30;;;28.00;47.70;;;;;;4993743;28;20177;-70
2023/08/15 04:42:57;;;;;;;2.63;2.35;;;28.00;47.70;;;;;;4993999;28;20124;-71
2023/08/15 04:45:23;;;;;;;3.20;2.08;;;28.00;47.80;;;;;;4993999;28;20065;-70
2023/08/15 04:47:50;;;;;;;2.42;2.22;;;28.00;47.80;;;;;;4993893;28;20124;-71
2023/08/15 04:50:16;;;;;;;2.70;2.33;;;28.30;47.80;;;;;;4993241;28;20397;-71
2023/08/15 04:52:42;;;;;;;2.42;2.22;;;28.10;47.80;;;;;;4993892;28;20046;-70
2023/08/15 04:55:13;;;;;;;3.20;2.65;;;28.10;47.80;;;;;;4993281;28;20563;-71
2023/08/15 04:57:48;;;;;;;3.30;2.75;;;28.10;47.80;;;;;;5004016;28;20034;-70
2023/08/15 05:00:33;;;;;;;2.53;2.30;;;28.10;47.90;;;;;;4990574;28;20054;-70
2023/08/15 05:02:59;;;;;;;2.90;2.60;;;28.10;47.90;;;;;;4990078;28;20403;-70
2023/08/15 05:05:26;;;;;;;2.33;2.13;;;28.10;47.90;;;;;;4974157;28;20176;-70
2023/08/15 05:07:52;;;;;;;3.05;2.20;;;28.20;48.00;;;;;;4966750;28;20035;-70
2023/08/15 05:10:19;;;;;;;3.35;2.60;;;28.10;48.00;;;;;;4970625;28;20050;-69
2023/08/15 05:12:45;;;;;;;3.05;2.08;;;28.10;48.00;;;;;;4971022;28;20108;-70
2023/08/15 05:15:11;;;;;;;3.88;2.80;;;28.10;48.00;;;;;;4979175;28;20081;-69
2023/08/15 05:17:37;;;;;;;5.20;2.38;;;28.20;48.10;;;;;;4990033;28;20045;-70
2023/08/15 05:20:04;;;;;;;2.50;2.30;;;28.20;48.10;;;;;;4990005;28;20046;-70
2023/08/15 05:22:32;;;;;;;3.90;3.50;;;28.10;48.10;;;;;;4990189;28;20495;-70
2023/08/15 05:24:58;;;;;;;3.47;2.13;;;28.10;48.00;;;;;;4997991;28;20070;-70
2023/08/15 05:27:28;;;;;;;2.85;2.30;;;28.10;48.10;;;;;;4993227;28;20042;-71
2023/08/15 05:29:56;;;;;;;4.07;2.47;;;28.10;48.10;;;;;;4993021;28;20462;-70
2023/08/15 05:32:22;;;;;;;2.83;1.98;;;28.10;48.10;;;;;;5012875;28;20048;-70
2023/08/15 05:34:48;;;;;;;2.33;2.08;;;28.20;48.10;;;;;;5031336;28;20080;-70
2023/08/15 05:37:14;;;;;;;2.45;1.90;;;28.10;48.10;;;;;;5031725;28;20033;-70
2023/08/15 05:39:40;;;;;;;4.43;2.80;;;28.10;48.10;;;;;;5030270;28;20025;-70
2023/08/15 05:42:07;;;;;;;2.50;2.10;;;28.10;48.10;;;;;;5030847;28;20512;-70
2023/08/15 05:44:36;;;;;;;2.83;2.53;;;28.10;48.10;;;;;;5031421;28;20037;-70
2023/08/15 05:47:02;;;;;;;3.38;2.63;;;28.10;48.10;;;;;;5030399;28;20035;-70
2023/08/15 05:49:28;;;;;;;2.80;2.17;;;28.10;48.10;;;;;;5030917;28;20029;-69
2023/08/15 05:52:07;;;;;;;2.40;2.20;;;28.00;48.20;;;;;;5030753;28;20119;-68
2023/08/15 05:54:33;;;;;;;4.28;2.38;;;28.10;48.10;;;;;;5031136;28;20029;-68
2023/08/15 05:56:59;;;;;;;2.78;2.53;;;28.00;48.90;;;;;;5029964;28;20034;-68
2023/08/15 05:59:25;;;;;;;4.38;2.95;;;28.10;49.70;;;;;;5030734;28;20034;-67
2023/08/15 06:01:52;;;;;;;6.32;3.47;;;28.30;49.10;;;;;;5031140;28;20381;-66
2023/08/15 06:04:18;;;;;;;5.28;3.60;;;28.30;48.80;;;;;;5031377;28;20030;-66
2023/08/15 06:06:44;;;;;;;13.30;5.25;;;28.20;47.50;;;;;;5040285;28;20052;-66
2023/08/15 06:09:10;;;;;;;7.05;4.28;;;28.30;49.40;;;;;;5050965;28;20039;-66
2023/08/15 06:11:36;;;;;;;5.50;4.63;;;28.30;47.50;;;;;;5050758;28;20053;-65
2023/08/15 06:14:02;;;;;;;7.05;4.60;;;28.40;47.10;;;;;;5038974;28;20033;-66
2023/08/15 06:16:28;;;;;;;10.68;5.78;;;28.40;46.50;;;;;;5030689;28;20041;-66
2023/08/15 06:18:54;;;;;;;11.93;6.95;;;28.40;46.90;;;;;;5028786;28;20385;-67
2023/08/15 06:21:20;;;;;;;13.65;6.65;;;28.40;45.90;;;;;;5029201;28;20059;-67
2023/08/15 06:23:46;;;;;;;9.07;5.85;;;28.40;46.40;;;;;;5029462;28;20033;-68
2023/08/15 06:26:13;;;;;;;12.80;6.70;;;28.40;45.80;;;;;;5030136;28;20034;-68
2023/08/15 06:28:39;;;;;;;14.55;8.35;;;28.50;49.30;;;;;;5030576;28;20401;-68
2023/08/15 06:31:05;;;;;;;6.63;5.38;;;28.50;49.50;;;;;;5028019;28;20091;-69
2023/08/15 06:33:32;;;;;;;6.22;4.75;;;28.50;48.90;;;;;;5002214;28;20046;-68
2023/08/15 06:36:01;;;;;;;8.48;4.57;;;28.60;47.00;;;;;;4991962;28;20148;-69
2023/08/15 06:38:27;;;;;;;9.25;4.20;;;28.50;46.40;;;;;;5008251;28;20092;-67
2023/08/15 06:40:53;;;;;;;6.47;4.07;;;28.50;45.70;;;;;;5008557;28;20034;-66
2023/08/15 06:43:19;;;;;;;9.32;4.07;;;28.50;45.20;;;;;;5007964;28;20042;-67
2023/08/15 06:45:45;;;;;;;6.47;3.70;;;28.50;44.50;;;;;;5008431;28;20041;-67
2023/08/15 06:48:14;;;;;;;5.43;3.72;;;28.60;44.40;;;;;;5008207;28;20081;-68
2023/08/15 06:50:41;;;;;;;6.32;3.22;;;28.50;44.60;;;;;;5008009;28;20042;-67
2023/08/15 06:53:06;;;;;;;4.13;3.30;;;28.40;44.00;;;;;;5014615;28;20168;-66
2023/08/15 06:55:33;;;;;;;7.40;3.45;;;28.50;43.90;;;;;;5009239;28;20145;-67
2023/08/15 06:57:59;;;;;;;6.38;3.70;;;28.50;43.80;;;;;;4991559;28;20390;-67
2023/08/15 07:00:25;;;;;;;7.80;3.88;;;28.50;43.60;;;;;;4972113;28;20050;-67
2023/08/15 07:02:51;;;;;;;13.93;3.35;;;28.70;43.40;;;;;;4993303;28;20038;-66
2023/08/15 07:05:17;;;;;;;5.80;3.70;;;28.50;43.30;;;;;;5015739;28;20099;-66
2023/08/15 07:07:43;;;;;;;4.32;3.40;;;28.50;43.40;;;;;;5031136;28;20025;-66
2023/08/15 07:10:12;;;;;;;4.40;3.35;;;28.60;43.30;;;;;;4981908;28;20649;-67
2023/08/15 07:12:38;;;;;;;5.38;3.60;;;28.50;43.30;;;;;;5034318;28;20369;-66
2023/08/15 07:15:06;;;;;;;6.22;3.33;;;28.60;43.00;;;;;;5034435;28;20045;-66
2023/08/15 07:17:32;;;;;;;4.38;3.65;;;28.60;42.70;;;;;;5034510;28;20108;-66
2023/08/15 07:19:58;;;;;;;7.45;3.78;;;28.60;42.70;;;;;;5016359;28;20531;-65
2023/08/15 07:22:24;;;;;;;6.45;3.38;;;28.70;43.00;;;;;;5034367;28;20124;-66
2023/08/15 07:24:51;;;;;;;7.25;3.92;;;28.70;43.30;;;;;;5033430;28;20241;-71
2023/08/15 07:27:17;;;;;;;7.07;3.65;;;28.60;43.80;;;;;;5034217;28;20034;-69
2023/08/15 07:29:44;;;;;;;6.35;4.35;;;28.70;43.90;;;;;;5034150;28;20427;-68
2023/08/15 07:32:10;;;;;;;17.45;4.38;;;28.70;44.10;;;;;;5028094;28;20034;-67
2023/08/15 07:34:36;;;;;;;8.80;4.75;;;28.80;44.10;;;;;;5042862;28;20048;-68
2023/08/15 07:37:03;;;;;;;5.78;3.47;;;28.80;44.00;;;;;;5053950;28;20041;-67
2023/08/15 07:39:29;;;;;;;5.65;3.47;;;28.80;43.30;;;;;;5053808;28;20473;-67
2023/08/15 07:41:55;;;;;;;7.80;3.60;;;28.90;43.00;;;;;;5037475;28;20049;-68
2023/08/15 07:44:21;;;;;;;6.25;3.35;;;28.80;42.80;;;;;;5034026;28;20077;-67
2023/08/15 07:46:47;;;;;;;5.30;3.05;;;28.90;42.40;;;;;;5033746;28;20072;-67
2023/08/15 07:49:13;;;;;;;6.35;3.65;;;28.90;42.20;;;;;;4997794;28;20046;-67
2023/08/15 07:51:39;;;;;;;5.95;3.80;;;28.80;42.00;;;;;;5033306;28;20132;-68
2023/08/15 07:54:05;;;;;;;5.57;3.35;;;28.90;41.80;;;;;;5033310;28;20029;-67
2023/08/15 07:56:33;;;;;;;5.00;3.35;;;28.90;41.70;;;;;;5033527;28;20025;-67
2023/08/15 07:59:00;;;;;;;4.63;3.75;;;28.80;41.60;;;;;;5008938;28;20049;-67
2023/08/15 08:01:26;;;;;;;6.53;2.80;;;28.80;41.40;;;;;;5015279;28;20040;-68
2023/08/15 08:03:52;;;;;;;3.65;2.67;;;28.90;41.20;;;;;;5033394;28;20080;-67
2023/08/15 08:06:18;;;;;;;3.15;2.88;;;28.80;41.00;;;;;;5029668;28;20029;-68
2023/08/15 08:08:44;;;;;;;6.57;3.95;;;28.90;40.90;;;;;;5028475;28;20040;-68
2023/08/15 08:11:10;;;;;;;4.93;2.65;;;28.90;40.70;;;;;;5033099;28;20034;-68
2023/08/15 08:13:36;;;;;;;3.05;2.53;;;28.80;40.60;;;;;;5033441;28;20163;-68
2023/08/15 08:16:03;;;;;;;5.93;3.42;;;28.90;40.60;;;;;;5032679;28;20480;-69
2023/08/15 08:18:29;;;;;;;5.82;3.35;;;28.70;40.50;;;;;;5033419;28;20030;-68
2023/08/15 08:20:58;;;;;;;4.30;3.13;;;28.90;40.60;;;;;;5012063;28;20081;-68
2023/08/15 08:23:24;;;;;;;6.85;3.53;;;28.80;40.40;;;;;;5013282;28;20048;-67
2023/08/15 08:25:51;;;;;;;4.30;3.08;;;28.80;40.10;;;;;;5013112;28;20037;-66
2023/08/15 08:28:17;;;;;;;4.53;3.22;;;28.80;40.40;;;;;;5017075;28;20102;-70
2023/08/15 08:30:44;;;;;;;4.50;3.13;;;28.70;40.40;;;;;;5016939;28;20033;-69
2023/08/15 08:33:10;;;;;;;4.95;3.03;;;28.70;40.60;;;;;;5002407;28;20146;-67
2023/08/15 08:35:36;;;;;;;3.28;3.00;;;28.60;40.90;;;;;;5012658;28;20049;-68
2023/08/15 08:38:03;;;;;;;4.20;3.47;;;28.60;41.20;;;;;;5029778;28;20033;-68
2023/08/15 08:40:29;;;;;;;5.15;2.83;;;28.70;41.10;;;;;;5014756;28;20037;-67
2023/08/15 08:42:55;;;;;;;4.03;3.55;;;28.60;41.30;;;;;;5032734;28;20087;-66
2023/08/15 08:45:26;;;;;;;3.72;3.00;;;28.70;41.40;;;;;;5032517;28;20034;-68
2023/08/15 08:47:52;;;;;;;7.03;2.80;;;28.60;41.50;;;;;;5032768;28;20432;-66
2023/08/15 08:50:19;;;;;;;3.72;2.60;;;28.60;41.60;;;;;;5013211;28;20033;-67
2023/08/15 08:52:49;;;;;;;4.18;2.60;;;28.70;41.70;;;;;;5012945;28;20030;-67
2023/08/15 08:55:19;;;;;;;3.78;3.33;;;28.70;41.80;;;;;;5012782;28;20120;-67
2023/08/15 08:57:51;;;;;;;3.47;2.90;;;28.70;41.90;;;;;;5012967;28;20332;-67
2023/08/15 09:00:19;;;;;;;5.05;2.38;;;28.60;41.90;;;;;;5012498;28;20030;-67
2023/08/15 09:02:46;;;;;;;4.88;3.28;;;28.70;42.00;;;;;;4994307;28;20080;-68
2023/08/15 09:05:12;;;;;;;3.80;3.15;;;28.70;42.10;;;;;;5028309;28;20029;-67
2023/08/15 09:07:38;;;;;;;4.60;2.85;;;28.60;42.30;;;;;;5037342;28;20033;-67
2023/08/15 09:10:06;;;;;;;3.00;2.70;;;28.60;42.30;;;;;;5032302;28;20096;-67
2023/08/15 09:12:40;;;;;;;3.80;2.25;;;28.50;42.10;;;;;;4999619;28;20057;-67
2023/08/15 09:15:10;;;;;;;3.58;3.28;;;28.50;41.90;;;;;;5032259;28;20029;-65
2023/08/15 09:17:41;;;;;;;2.88;2.50;;;28.60;41.50;;;;;;5032139;28;20053;-67
2023/08/15 09:20:13;;;;;;;6.35;2.97;;;28.80;41.10;;;;;;5032298;28;20045;-67
2023/08/15 09:22:46;;;;;;;3.75;2.83;;;28.60;40.80;;;;;;5032032;28;20083;-67
2023/08/15 09:25:25;;;;;;;5.78;3.33;;;28.50;40.60;;;;;;5031897;28;20029;-67
2023/08/15 09:27:51;;;;;;;4.07;3.03;;;28.60;40.50;;;;;;5031455;28;20030;-67
2023/08/15 09:30:18;;;;;;;4.03;2.80;;;28.60;40.50;;;;;;4996334;28;20076;-67
2023/08/15 09:32:45;;;;;;;3.13;2.70;;;28.50;40.40;;;;;;5032034;28;20044;-68
2023/08/15 09:35:16;;;;;;;3.22;2.70;;;28.60;40.10;;;;;;5031788;28;20045;-67
2023/08/15 09:37:47;;;;;;;4.47;3.22;;;28.40;40.10;;;;;;5031769;28;20477;-67
2023/08/15 09:40:24;;;;;;;4.43;2.97;;;28.50;39.90;;;;;;5031518;28;20030;-67
2023/08/15 09:42:54;;;;;;;2.90;2.60;;;28.50;39.70;;;;;;5031494;28;20527;-67
2023/08/15 09:45:20;;;;;;;3.20;2.30;;;28.50;39.60;;;;;;5031791;28;20033;-67
2023/08/15 09:47:58;;;;;;;4.80;3.00;;;28.50;39.50;;;;;;5068371;28;20385;-67
2023/08/15 09:50:25;;;;;;;3.90;2.75;;;28.40;39.50;;;;;;5067957;28;20024;-67
2023/08/15 09:52:52;;;;;;;3.90;2.75;;;28.50;39.40;;;;;;5068013;28;20076;-66
2023/08/15 09:55:19;;;;;;;3.63;2.83;;;28.40;39.60;;;;;;5068020;28;20029;-67
2023/08/15 09:57:46;;;;;;;2.83;2.30;;;28.40;39.60;;;;;;5053396;28;20033;-67
2023/08/15 10:00:13;;;;;;;3.72;2.40;;;28.50;39.60;;;;;;5047608;28;20038;-67
2023/08/15 10:02:55;;;;;;;3.10;2.58;;;28.30;39.50;;;;;;5047918;28;20068;-67
2023/08/15 10:05:23;;;;;;;3.38;2.78;;;28.40;39.40;;;;;;5047963;28;20437;-67
2023/08/15 10:07:49;;;;;;;4.05;2.67;;;28.20;39.40;;;;;;5064431;28;20041;-67
2023/08/15 10:10:17;;;;;;;3.25;2.40;;;28.30;39.10;;;;;;5067289;28;20044;-67
2023/08/15 10:12:46;;;;;;;3.45;2.22;;;28.20;39.40;;;;;;5066288;28;20090;-66
2023/08/15 10:15:13;;;;;;;8.10;2.83;;;28.10;39.90;;;;;;5049040;28;20464;-66
2023/08/15 10:17:40;;;;;;;3.28;2.97;;;28.20;40.80;;;;;;5047632;28;20065;-66
2023/08/15 10:20:13;;;;;;;3.97;3.15;;;28.10;41.10;;;;;;5047844;28;20095;-66
2023/08/15 10:22:40;;;;;;;3.70;2.70;;;28.10;41.50;;;;;;5047421;28;20033;-67
2023/08/15 10:25:24;;;;;;;4.43;2.85;;;28.10;41.90;;;;;;5047394;28;20029;-66
2023/08/15 10:27:52;;;;;;;5.45;3.20;;;28.30;46.00;;;;;;5047309;28;20847;-69
2023/08/15 10:30:42;;;;;;;6.28;3.60;;;28.30;46.30;;;;;;5055525;28;20529;-66
2023/08/15 10:33:12;;;;;;;3.65;3.25;;;28.50;48.40;;;;;;5057717;28;20020;-66
2023/08/15 10:36:05;;;;;;;10.40;3.65;;;28.60;47.50;;;;;;5057024;28;20439;-66
2023/08/15 10:38:39;;;;;;;6.68;2.70;;;28.70;47.50;;;;;;5065847;28;20075;-68
2023/08/15 10:41:07;;;;;;;3.13;2.83;;;28.90;49.10;;;;;;5071199;28;20119;-67
2023/08/15 10:43:34;;;;;;;3.80;2.70;;;29.00;53.70;;;;;;5068106;28;20043;-67
2023/08/15 10:46:04;;;;;;;3.88;2.58;;;28.90;53.60;;;;;;5071227;28;20164;-66
2023/08/15 10:48:50;;;;;;;5.20;2.50;;;29.00;54.50;;;;;;5064315;28;20051;-67
2023/08/15 10:51:27;;;;;;;4.70;2.50;;;29.10;54.40;;;;;;5063662;28;20028;-67
2023/08/15 10:54:01;;;;;;;2.80;2.60;;;29.20;54.70;;;;;;5072788;28;20095;-67
2023/08/15 10:56:28;;;;;;;3.83;2.50;;;29.20;52.90;;;;;;5055810;28;20041;-66
2023/08/15 10:58:56;;;;;;;3.17;2.20;;;29.30;49.10;;;;;;5041139;28;20045;-66
2023/08/15 11:01:24;;;;;;;2.50;2.30;;;29.10;47.20;;;;;;5048685;28;20108;-67
2023/08/15 11:03:53;;;;;;;6.78;2.47;;;29.20;49.10;;;;;;5053318;28;20033;-68
2023/08/15 11:06:19;;;;;;;2.92;2.45;;;29.20;48.10;;;;;;5060567;28;20506;-67
2023/08/15 11:08:49;;;;;;;2.85;2.00;;;29.20;47.00;;;;;;5061092;28;20037;-67
2023/08/15 11:11:16;;;;;;;2.47;2.28;;;29.10;46.40;;;;;;5054522;28;20061;-67
2023/08/15 11:13:44;;;;;;;3.95;2.10;;;29.20;45.60;;;;;;5052118;28;20349;-67
2023/08/15 11:16:13;;;;;;;3.17;2.30;;;29.00;45.70;;;;;;5055502;28;20028;-67
2023/08/15 11:18:41;;;;;;;3.10;2.20;;;29.20;45.60;;;;;;5055072;28;20035;-68
2023/08/15 11:21:09;;;;;;;3.55;2.30;;;29.10;45.30;;;;;;5051505;28;20036;-67
2023/08/15 11:23:36;;;;;;;2.15;1.95;;;29.10;45.20;;;;;;5061717;28;20312;-67
2023/08/15 11:26:04;;;;;;;1.85;1.75;;;29.10;45.00;;;;;;5062973;28;20123;-67
2023/08/15 11:28:31;;;;;;;2.35;1.95;;;29.10;45.20;;;;;;5046951;28;20686;-67
2023/08/15 11:31:07;;;;;;;1.70;1.60;;;29.00;45.10;;;;;;5051628;28;20021;-67
2023/08/15 11:33:33;;;;;;;2.42;1.90;;;29.00;44.80;;;;;;5045784;28;20029;-67
2023/08/15 11:36:06;;;;;;;2.90;2.30;;;29.10;44.90;;;;;;5050893;28;20037;-68
2023/08/15 11:38:34;;;;;;;1.85;1.73;;;29.00;45.00;;;;;;5051949;28;20029;-68
2023/08/15 11:41:01;;;;;;;3.33;1.85;;;29.00;45.10;;;;;;5054691;28;20029;-69
2023/08/15 11:43:34;;;;;;;2.40;2.20;;;28.90;44.30;;;;;;5059952;28;20341;-68
2023/08/15 11:46:04;;;;;;;1.80;1.70;;;29.00;44.90;;;;;;5057396;28;20061;-67
2023/08/15 11:48:32;;;;;;;4.53;3.00;;;28.90;44.40;;;;;;5057735;28;20040;-68
2023/08/15 11:50:59;;;;;;;5.85;2.95;;;28.90;44.90;;;;;;5047712;28;20472;-68
2023/08/15 11:53:25;;;;;;;3.67;3.20;;;28.90;45.20;;;;;;5061263;28;20067;-68
2023/08/15 11:55:51;;;;;;;2.17;2.08;;;28.80;45.20;;;;;;5049061;28;20037;-68
2023/08/15 11:58:28;;;;;;;1.65;1.55;;;28.90;45.50;;;;;;5064907;28;20020;-68
2023/08/15 12:01:00;;;;;;;2.40;1.30;;;29.00;46.30;;;;;;5055424;28;20044;-68
2023/08/15 12:03:27;;;;;;;1.50;1.40;;;28.80;45.90;;;;;;5060732;28;20115;-68
2023/08/15 12:05:58;;;;;;;2.35;2.15;;;28.90;46.00;;;;;;5061360;28;20442;-68
2023/08/15 12:08:28;;;;;;;2.08;1.98;;;28.80;46.10;;;;;;5044904;28;20453;-68
2023/08/15 12:11:04;;;;;;;1.55;1.45;;;28.80;46.20;;;;;;5031487;28;20037;-69
2023/08/15 12:13:35;;;;;;;1.10;1.00;;;29.00;46.80;;;;;;5032727;28;20087;-69
2023/08/15 12:16:03;;;;;;;0.90;0.90;;;28.80;46.30;;;;;;5032149;28;20044;-68
2023/08/15 12:18:30;;;;;;;1.30;1.20;;;28.80;46.20;;;;;;5030629;28;20453;-68
2023/08/15 12:20:56;;;;;;;0.90;0.90;;;28.80;46.50;;;;;;5048836;28;20457;-69
2023/08/15 12:23:23;;;;;;;2.13;1.10;;;28.90;46.60;;;;;;5052017;28;20065;-67
2023/08/15 12:25:49;;;;;;;1.65;1.55;;;28.80;46.70;;;;;;5051788;28;20029;-69
2023/08/15 12:28:17;;;;;;;1.13;1.10;;;28.70;46.90;;;;;;5051690;28;20060;-69
2023/08/15 12:30:44;;;;;;;1.00;1.00;;;28.60;47.00;;;;;;5037206;28;20119;-68
2023/08/15 12:33:11;;;;;;;0.95;0.90;;;28.70;46.90;;;;;;5030380;28;20088;-67
2023/08/15 12:35:37;;;;;;;1.23;1.10;;;28.70;47.20;;;;;;5031829;28;20033;-65
2023/08/15 12:38:04;;;;;;;2.17;1.98;;;28.60;46.90;;;;;;5032051;28;20033;-68
2023/08/15 12:40:31;;;;;;;1.38;1.20;;;28.60;46.80;;;;;;5031928;28;20116;-67
2023/08/15 12:42:58;;;;;;;1.30;1.00;;;28.60;46.60;;;;;;5031829;28;20045;-68
2023/08/15 12:45:24;;;;;;;3.63;1.80;;;28.60;46.60;;;;;;5041101;28;20111;-67
2023/08/15 12:47:50;;;;;;;4.88;1.23;;;28.60;46.60;;;;;;5039759;28;20111;-67
2023/08/15 12:50:17;;;;;;;0.98;0.98;;;28.60;46.50;;;;;;5030520;28;20477;-67